Terminal Aerodrome Forecast
Issued by NWS

Home | Current Version | Previous Version | Text Only | Print | Product List | Glossary Off
Versions: 1 2 3 4 5 6 7 8 9 10 11 12 13 14 15 16 17 18 19 20 21 22 23 24 25

000
FTUS43 KABR 252200 AAB
TAFMBG
TAF AMD
KMBG 252214Z 2522/2618 14009KT P6SM OVC016
     FM260300 11009KT P6SM BKN040
     FM261600 14014G20KT P6SM BKN040=

USA.gov is the U.S. government's official web portal to all federal, state and local government web resources and services.